Terminal Aerodrome Forecast
Issued by NWS Hastings, NE

Home | Current Version | Previous Version | Text Only | Print | Product List | Glossary On
Versions: 1 2 3 4 5 6 7 8 9 10 11 12 13 14 15 16 17 18 19 20 21 22 23 24
000
FTUS43 KGID 110520
TAFGRI
TAF
KGRI 110520Z 1106/1206 02008KT P6SM BKN200
     FM110800 01006KT P6SM OVC020
     FM111000 01005KT 3SM BR OVC005
     FM111700 17007KT P6SM OVC005
     FM111800 18008KT P6SM OVC015
     FM120500 26007KT P6SM BKN015=

USA.gov is the U.S. government's official web portal to all federal, state and local government web resources and services.